createdAt,value
2019-04-07T00:01:52.640Z,56.23
2019-04-07T00:04:22.543Z,53.78
2019-04-07T00:06:52.279Z,51.33
2019-04-07T00:09:22.268Z,51.85
2019-04-07T00:11:51.972Z,49.33
2019-04-07T00:14:21.323Z,48.13
2019-04-07T00:16:50.897Z,48.52
2019-04-07T00:19:21.904Z,48.25
2019-04-07T00:21:52.307Z,52.88
2019-04-07T00:24:21.888Z,53.65
2019-04-07T00:26:52.555Z,57.43
2019-04-07T00:29:26.493Z,57.00
2019-04-07T00:31:56.445Z,61.13
2019-04-07T00:34:25.901Z,58.75
2019-04-07T00:36:55.713Z,60.55
2019-04-07T00:39:28.100Z,58.38
2019-04-07T00:41:58.246Z,56.23
2019-04-07T00:44:27.888Z,60.78
2019-04-07T00:47:03.096Z,59.67
2019-04-07T00:49:32.616Z,58.70
2019-04-07T00:52:03.887Z,54.15
2019-04-07T00:54:33.297Z,57.23
2019-04-07T00:57:02.807Z,53.25
2019-04-07T00:59:32.143Z,56.35
2019-04-07T01:02:01.506Z,57.73
2019-04-07T01:04:30.819Z,58.50
2019-04-07T01:07:00.263Z,55.92
2019-04-07T01:09:37.714Z,59.63
2019-04-07T01:12:23.535Z,56.18
2019-04-07T01:14:53.355Z,53.02
2019-04-07T01:17:22.788Z,55.25
2019-04-07T01:19:52.104Z,54.13
2019-04-07T01:22:21.889Z,55.05
2019-04-07T01:24:51.789Z,55.00
2019-04-07T01:27:21.155Z,57.43
2019-04-07T01:29:51.696Z,56.53
2019-04-07T01:32:21.310Z,54.90
2019-04-07T01:34:50.722Z,55.08
2019-04-07T01:37:20.051Z,52.35
2019-04-07T01:39:49.407Z,53.00
2019-04-07T01:42:26.514Z,54.70
2019-04-07T01:45:12.733Z,53.50
2019-04-07T01:47:44.273Z,48.83
2019-04-07T01:50:27.391Z,50.50
2019-04-07T01:53:01.257Z,50.10
2019-04-07T01:55:32.174Z,49.85
2019-04-07T02:00:55.443Z,47.83
2019-04-07T02:03:29.111Z,48.75
2019-04-07T02:06:06.053Z,48.20
2019-04-07T02:08:54.978Z,47.60
2019-04-07T02:11:41.838Z,49.60
2019-04-07T02:14:15.911Z,46.98
2019-04-07T02:16:49.996Z,48.83
2019-04-07T02:19:21.618Z,46.13
2019-04-07T02:21:55.759Z,48.35
2019-04-07T02:24:43.212Z,45.45
2019-04-07T02:27:15.271Z,48.10
2019-04-07T02:29:50.062Z,48.13
2019-04-07T02:32:37.898Z,46.65
2019-04-07T02:35:12.896Z,46.60
2019-04-07T02:37:58.923Z,45.65
2019-04-07T02:40:33.099Z,45.50
2019-04-07T02:46:48.832Z,43.40
2019-04-07T02:49:26.306Z,44.60
2019-04-07T02:51:57.477Z,45.88
2019-04-07T02:54:44.552Z,48.52
2019-04-07T02:57:18.944Z,48.05
2019-04-07T02:59:56.048Z,47.33
2019-04-07T03:02:43.627Z,46.33
2019-04-07T03:05:15.553Z,46.10
2019-04-07T03:07:47.508Z,49.73
2019-04-07T03:10:25.117Z,48.60
2019-04-07T03:12:58.696Z,48.58
2019-04-07T03:15:38.706Z,48.92
2019-04-07T03:18:27.017Z,48.10
2019-04-07T03:21:04.018Z,50.20
2019-04-07T03:23:38.366Z,50.17
2019-04-07T03:26:27.655Z,48.63
2019-04-07T03:29:14.612Z,49.25
2019-04-07T03:31:48.048Z,51.23
2019-04-07T03:34:18.977Z,49.25
2019-04-07T03:37:26.969Z,50.50
2019-04-07T03:39:30.061Z,48.00
2019-04-07T03:42:17.879Z,49.63
2019-04-07T03:44:55.036Z,46.55
2019-04-07T03:47:26.105Z,48.80
2019-04-07T03:50:00.122Z,43.98
2019-04-07T03:52:43.226Z,44.75
2019-04-07T03:55:15.257Z,45.73
2019-04-07T03:58:03.614Z,48.58
2019-04-07T04:01:02.657Z,47.45
2019-04-07T04:03:42.266Z,50.20
2019-04-07T04:06:32.172Z,48.98
2019-04-07T04:09:08.899Z,47.60
2019-04-07T04:11:40.637Z,46.30
2019-04-07T04:14:11.701Z,46.45
2019-04-07T04:16:42.692Z,51.00
2019-04-07T04:19:12.919Z,44.85
2019-04-07T04:21:42.343Z,46.87
2019-04-07T04:24:12.277Z,46.98
2019-04-07T04:26:42.050Z,53.80
2019-04-07T04:29:12.274Z,46.73
2019-04-07T04:31:42.244Z,51.63
2019-04-07T04:34:12.014Z,52.20
2019-04-07T04:36:41.488Z,52.30
2019-04-07T04:39:10.889Z,48.58
2019-04-07T04:41:40.746Z,46.55
2019-04-07T04:44:14.210Z,50.73
2019-04-07T04:46:43.767Z,49.20
2019-04-07T04:49:13.552Z,51.83
2019-04-07T04:51:42.952Z,52.10
2019-04-07T04:54:12.581Z,51.30
2019-04-07T04:56:42.408Z,52.03
2019-04-07T04:59:12.926Z,49.23
2019-04-07T05:01:42.335Z,50.28
2019-04-07T05:04:12.589Z,50.20
2019-04-07T05:06:42.434Z,54.63
2019-04-07T05:09:12.309Z,49.30
2019-04-07T05:11:41.847Z,47.38
2019-04-07T05:14:11.427Z,40.55
2019-04-07T05:16:40.953Z,40.00
2019-04-07T05:19:10.982Z,42.50
2019-04-07T05:21:40.482Z,50.08
2019-04-07T05:24:10.229Z,46.80
2019-04-07T05:26:39.710Z,48.33
2019-04-07T05:29:10.303Z,50.87
2019-04-07T05:31:40.140Z,49.83
2019-04-07T05:34:10.789Z,45.40
2019-04-07T05:36:40.818Z,47.38
2019-04-07T05:39:10.297Z,49.75
2019-04-07T05:41:40.009Z,51.25
2019-04-07T05:44:09.378Z,46.37
2019-04-07T05:46:40.156Z,44.67
2019-04-07T05:49:09.694Z,48.33
2019-04-07T05:51:39.349Z,46.33
2019-04-07T05:54:11.989Z,38.95
2019-04-07T05:56:41.319Z,40.30
2019-04-07T05:59:13.078Z,36.53
2019-04-07T06:01:42.262Z,30.97
2019-04-07T06:04:17.509Z,32.63
2019-04-07T06:06:42.651Z,33.78
2019-04-07T06:09:11.944Z,37.45
2019-04-07T06:11:41.301Z,33.45
2019-04-07T06:14:11.538Z,32.17
2019-04-07T06:16:41.692Z,33.45
2019-04-07T06:19:11.578Z,31.95
2019-04-07T06:21:41.648Z,31.73
2019-04-07T06:24:11.332Z,31.90
2019-04-07T06:26:42.868Z,32.48
2019-04-07T06:29:11.855Z,30.62
2019-04-07T06:31:41.496Z,31.52
2019-04-07T06:34:11.989Z,33.23
2019-04-07T06:39:10.002Z,31.48
2019-04-07T06:41:39.348Z,31.82
2019-04-07T06:44:13.333Z,33.35
2019-04-07T06:46:41.334Z,32.78
2019-04-07T06:49:21.943Z,31.48
2019-04-07T06:52:02.873Z,31.50
2019-04-07T06:54:43.835Z,30.57
2019-04-07T06:57:26.673Z,30.85
2019-04-07T06:59:57.778Z,30.40
2019-04-07T07:02:29.498Z,31.25
2019-04-07T07:05:04.226Z,32.95
2019-04-07T07:07:49.985Z,31.00
2019-04-07T07:10:40.124Z,31.60
2019-04-07T07:13:32.300Z,33.15
2019-04-07T07:16:00.481Z,33.05
2019-04-07T07:18:48.693Z,32.50
2019-04-07T07:21:20.171Z,30.17
2019-04-07T07:23:50.035Z,29.92
2019-04-07T07:26:21.472Z,28.17
2019-04-07T07:28:51.044Z,26.82
2019-04-07T07:31:23.868Z,27.50
2019-04-07T07:33:51.492Z,27.27
2019-04-07T07:36:22.646Z,27.60
2019-04-07T07:38:58.865Z,27.30
2019-04-07T07:43:53.573Z,25.52
2019-04-07T07:46:23.837Z,27.80
2019-04-07T07:48:58.936Z,27.45
2019-04-07T07:51:25.757Z,27.95
2019-04-07T07:53:58.653Z,26.77
2019-04-07T07:56:26.860Z,27.05
2019-04-07T07:58:59.882Z,27.60
2019-04-07T08:01:28.369Z,25.97
2019-04-07T08:03:58.704Z,27.02
2019-04-07T08:06:28.200Z,26.20
2019-04-07T08:09:09.993Z,26.68
2019-04-07T08:11:32.206Z,25.32
2019-04-07T08:13:59.606Z,26.07
2019-04-07T08:16:31.239Z,25.32
2019-04-07T08:19:00.748Z,24.00
2019-04-07T08:21:32.653Z,23.30
2019-04-07T08:24:02.566Z,22.50
2019-04-07T08:26:32.078Z,23.52
2019-04-07T08:29:05.614Z,23.10
2019-04-07T08:31:33.701Z,22.35
2019-04-07T08:34:03.761Z,23.63
2019-04-07T08:36:33.835Z,23.50
2019-04-07T08:39:06.121Z,23.33
2019-04-07T08:41:39.169Z,22.82
2019-04-07T08:46:40.932Z,24.43
2019-04-07T08:49:07.640Z,23.45
2019-04-07T08:51:38.038Z,22.60
2019-04-07T08:54:07.376Z,23.57
2019-04-07T08:56:37.612Z,23.03
2019-04-07T08:59:16.191Z,22.50
2019-04-07T09:01:43.543Z,22.60
2019-04-07T09:04:15.140Z,22.25
2019-04-07T09:06:44.890Z,20.68
2019-04-07T09:09:14.238Z,21.05
2019-04-07T09:11:43.659Z,20.35
2019-04-07T09:14:15.990Z,20.23
2019-04-07T09:17:04.678Z,19.52
2019-04-07T09:19:47.562Z,18.05
2019-04-07T09:22:23.178Z,19.07
2019-04-07T09:25:06.358Z,18.60
2019-04-07T09:27:48.618Z,19.27
2019-04-07T09:30:39.062Z,19.52
2019-04-07T09:33:26.992Z,19.27
2019-04-07T09:36:15.855Z,18.60
2019-04-07T09:39:03.916Z,17.15
2019-04-07T09:41:54.714Z,17.55
2019-04-07T09:44:24.095Z,17.95
2019-04-07T09:47:07.192Z,17.95
2019-04-07T09:49:57.560Z,16.93
2019-04-07T09:52:29.391Z,16.93
2019-04-07T09:55:01.051Z,16.45
2019-04-07T09:57:37.531Z,16.60
2019-04-07T10:00:25.529Z,17.23
2019-04-07T10:02:56.523Z,14.55
2019-04-07T10:05:33.561Z,14.83
2019-04-07T10:08:20.920Z,14.33
2019-04-07T10:10:58.323Z,14.28
2019-04-07T10:13:38.689Z,14.25
2019-04-07T10:16:22.198Z,15.03
2019-04-07T10:19:08.745Z,14.50
2019-04-07T10:21:52.705Z,8.85
2019-04-07T10:24:24.681Z,8.03
2019-04-07T10:26:58.831Z,10.65
2019-04-07T10:29:33.067Z,8.58
2019-04-07T10:32:10.255Z,8.30
2019-04-07T10:34:44.964Z,9.35
2019-04-07T10:37:21.917Z,8.68
2019-04-07T10:39:58.190Z,8.58
2019-04-07T10:42:35.848Z,9.10
2019-04-07T10:45:17.471Z,9.65
2019-04-07T10:47:48.730Z,7.70
2019-04-07T10:50:35.364Z,8.15
2019-04-07T10:53:11.448Z,8.03
2019-04-07T10:55:43.093Z,9.08
2019-04-07T10:58:14.135Z,9.10
2019-04-07T11:00:53.936Z,8.63
2019-04-07T11:03:28.278Z,8.20
2019-04-07T11:06:14.950Z,7.00
2019-04-07T11:08:51.888Z,6.80
2019-04-07T11:11:32.467Z,7.83
2019-04-07T11:14:06.843Z,8.70
2019-04-07T11:16:53.673Z,8.53
2019-04-07T11:19:40.586Z,9.73
2019-04-07T11:22:28.507Z,8.48
2019-04-07T11:25:16.980Z,8.45
2019-04-07T11:28:06.750Z,8.50
2019-04-07T11:30:38.703Z,7.47
2019-04-07T11:33:26.957Z,6.97
2019-04-07T11:36:10.628Z,7.00
2019-04-07T11:38:41.943Z,7.00
2019-04-07T11:41:26.140Z,7.20
2019-04-07T11:44:02.011Z,6.95
2019-04-07T11:46:33.109Z,6.95
2019-04-07T11:49:23.023Z,6.95
2019-04-07T11:51:55.543Z,7.07
2019-04-07T11:54:26.954Z,7.25
2019-04-07T11:57:33.540Z,7.65
2019-04-07T11:59:59.975Z,7.30
2019-04-07T12:02:33.553Z,6.92
2019-04-07T12:05:10.395Z,7.60
2019-04-07T12:07:58.762Z,6.70
2019-04-07T12:13:52.531Z,6.90
2019-04-07T12:16:39.104Z,9.35
2019-04-07T12:19:11.322Z,9.88
2019-04-07T12:22:03.502Z,9.60
2019-04-07T12:24:38.129Z,9.98
2019-04-07T12:27:25.920Z,10.88
2019-04-07T12:30:02.798Z,10.63
2019-04-07T12:32:50.847Z,9.98
2019-04-07T12:35:38.208Z,10.23
2019-04-07T12:38:26.501Z,9.83
2019-04-07T12:41:15.079Z,8.65
2019-04-07T12:43:49.569Z,10.47
2019-04-07T12:46:30.039Z,9.15
2019-04-07T12:51:53.355Z,9.30
2019-04-07T12:54:24.896Z,9.85
2019-04-07T12:56:57.733Z,8.90
2019-04-07T12:59:41.076Z,8.75
2019-04-07T13:02:17.939Z,8.55
2019-04-07T13:04:48.181Z,8.20
2019-04-07T13:07:37.796Z,7.60
2019-04-07T13:10:19.432Z,8.13
2019-04-07T13:13:06.915Z,9.25
2019-04-07T13:15:38.867Z,9.28
2019-04-07T13:18:16.597Z,10.43
2019-04-07T13:20:50.263Z,9.48
2019-04-07T13:23:26.598Z,8.88
2019-04-07T13:26:26.788Z,8.28
2019-04-07T13:28:55.371Z,8.93
2019-04-07T13:31:30.319Z,9.78
2019-04-07T13:34:18.390Z,10.18
2019-04-07T13:36:55.608Z,9.85
2019-04-07T13:39:42.897Z,10.65
2019-04-07T13:42:23.106Z,10.60
2019-04-07T13:44:55.849Z,9.53
2019-04-07T13:50:16.368Z,10.55
2019-04-07T13:53:01.407Z,11.33
2019-04-07T13:55:41.139Z,11.30
2019-04-07T13:58:26.108Z,11.78
2019-04-07T14:00:57.399Z,11.43
2019-04-07T14:03:40.676Z,11.38
2019-04-07T14:06:17.556Z,10.98
2019-04-07T14:08:51.699Z,10.38
2019-04-07T14:11:31.514Z,11.20
2019-04-07T14:14:05.650Z,10.90
2019-04-07T14:16:49.763Z,11.60
2019-04-07T14:19:29.758Z,10.75
2019-04-07T14:22:00.727Z,11.38
2019-04-07T14:27:12.382Z,11.48
2019-04-07T14:29:50.207Z,12.47
2019-04-07T14:32:31.169Z,12.07
2019-04-07T14:35:08.352Z,12.07
2019-04-07T14:37:42.925Z,12.35
2019-04-07T14:40:26.295Z,11.35
2019-04-07T14:43:13.673Z,11.85
2019-04-07T14:46:05.372Z,10.90
2019-04-07T14:48:37.564Z,11.45
2019-04-07T14:51:10.086Z,11.45
2019-04-07T14:53:54.030Z,10.43
2019-04-07T14:56:37.882Z,10.90
2019-04-07T14:59:29.830Z,10.30
2019-04-07T15:02:02.193Z,10.72
2019-04-07T15:04:40.813Z,10.80
2019-04-07T15:07:32.457Z,11.97
2019-04-07T15:10:03.507Z,11.78
2019-04-07T15:12:34.937Z,11.38
2019-04-07T15:15:09.938Z,12.75
2019-04-07T15:17:37.843Z,12.43
2019-04-07T15:20:11.627Z,12.25
2019-04-07T15:22:40.996Z,12.43
2019-04-07T15:25:11.894Z,12.50
2019-04-07T15:30:15.340Z,12.80
2019-04-07T15:32:42.769Z,12.15
2019-04-07T15:35:14.331Z,12.00
2019-04-07T15:37:43.196Z,13.62
2019-04-07T15:40:12.676Z,12.75
2019-04-07T15:42:45.984Z,12.25
2019-04-07T15:45:13.399Z,12.25
2019-04-07T15:47:42.799Z,12.63
2019-04-07T15:50:12.270Z,11.63
2019-04-07T15:52:44.299Z,10.65
2019-04-07T15:55:13.527Z,12.03
2019-04-07T15:57:43.940Z,11.77
2019-04-07T16:00:16.748Z,12.68
2019-04-07T16:02:49.263Z,12.70
2019-04-07T16:07:48.074Z,11.80
2019-04-07T16:10:21.248Z,12.05
2019-04-07T16:12:52.230Z,12.10
2019-04-07T16:15:21.104Z,12.10
2019-04-07T16:17:50.565Z,12.18
2019-04-07T16:20:24.690Z,12.50
2019-04-07T16:22:53.828Z,12.68
2019-04-07T16:25:27.524Z,11.78
2019-04-07T16:30:23.411Z,12.07
2019-04-07T16:32:53.658Z,11.77
2019-04-07T16:35:23.054Z,12.03
2019-04-07T16:37:53.131Z,12.28
2019-04-07T16:40:22.738Z,12.25
2019-04-07T16:43:04.402Z,12.30
2019-04-07T16:45:23.146Z,12.68
2019-04-07T16:47:53.052Z,12.73
2019-04-07T16:50:22.986Z,12.18
2019-04-07T16:52:53.224Z,13.28
2019-04-07T16:55:37.237Z,13.45
2019-04-07T16:58:08.491Z,13.00
2019-04-07T17:00:38.608Z,13.10
2019-04-07T17:03:09.900Z,12.20
2019-04-07T17:05:39.805Z,13.40
2019-04-07T17:08:09.139Z,12.53
2019-04-07T17:10:39.156Z,12.68
2019-04-07T17:13:16.955Z,12.20
2019-04-07T17:15:41.842Z,12.03
2019-04-07T17:18:30.845Z,12.78
2019-04-07T17:21:00.316Z,13.25
2019-04-07T17:23:29.636Z,12.60
2019-04-07T17:26:12.034Z,12.88
2019-04-07T17:28:44.654Z,13.03
2019-04-07T17:33:41.555Z,12.78
2019-04-07T17:36:15.270Z,13.05
2019-04-07T17:38:44.294Z,12.45
2019-04-07T17:41:15.578Z,12.58
2019-04-07T17:44:02.706Z,13.08
2019-04-07T17:46:45.960Z,12.47
2019-04-07T17:49:18.011Z,12.53
2019-04-07T17:51:55.080Z,12.90
2019-04-07T17:54:38.550Z,13.40
2019-04-07T17:57:24.667Z,12.93
2019-04-07T18:00:05.787Z,13.72
2019-04-07T18:02:38.594Z,13.30
2019-04-07T18:05:10.557Z,13.83
2019-04-07T18:07:58.557Z,14.03
2019-04-07T18:10:35.225Z,14.05
2019-04-07T18:13:16.622Z,14.33
2019-04-07T18:15:59.955Z,14.25
2019-04-07T18:18:31.562Z,14.43
2019-04-07T18:21:07.202Z,14.35
2019-04-07T18:23:51.968Z,14.30
2019-04-07T18:26:35.466Z,15.25
2019-04-07T18:29:10.364Z,15.75
2019-04-07T18:31:42.277Z,14.47
2019-04-07T18:34:15.659Z,14.68
2019-04-07T18:37:06.089Z,15.05
2019-04-07T18:39:38.477Z,14.20
2019-04-07T18:42:14.180Z,13.88
2019-04-07T18:45:01.715Z,14.53
2019-04-07T18:47:39.474Z,15.03
2019-04-07T18:50:17.126Z,14.40
2019-04-07T18:52:53.338Z,15.95
2019-04-07T18:55:26.176Z,15.20
2019-04-07T18:57:57.211Z,15.18
2019-04-07T19:01:10.302Z,15.10
2019-04-07T19:03:53.713Z,13.93
2019-04-07T19:06:27.127Z,15.40
2019-04-07T19:09:04.776Z,13.90
2019-04-07T19:11:42.859Z,15.28
2019-04-07T19:14:36.436Z,15.00
2019-04-07T19:17:05.626Z,14.95
2019-04-07T19:19:36.732Z,15.13
2019-04-07T19:22:10.994Z,16.93
2019-04-07T19:24:44.719Z,15.35
2019-04-07T19:27:33.182Z,15.58
2019-04-07T19:30:06.942Z,14.30
2019-04-07T19:32:40.782Z,15.38
2019-04-07T19:35:15.304Z,15.15
2019-04-07T19:38:01.417Z,15.72
2019-04-07T19:40:32.416Z,14.13
2019-04-07T19:43:19.530Z,15.25
2019-04-07T19:46:06.981Z,14.30
2019-04-07T19:48:56.584Z,15.28
2019-04-07T19:51:46.950Z,15.23
2019-04-07T19:54:33.114Z,16.35
2019-04-07T19:57:22.210Z,15.45
2019-04-07T19:59:53.146Z,16.82
2019-04-07T20:02:24.160Z,16.00
2019-04-07T20:04:59.244Z,14.70
2019-04-07T20:07:31.415Z,16.10
2019-04-07T20:10:03.088Z,15.87
2019-04-07T20:12:41.272Z,16.17
2019-04-07T20:15:19.982Z,15.68
2019-04-07T20:17:56.801Z,15.90
2019-04-07T20:20:53.540Z,16.62
2019-04-07T20:23:27.746Z,16.32
2019-04-07T20:26:03.699Z,15.83
2019-04-07T20:28:44.970Z,16.32
2019-04-07T20:31:19.424Z,17.32
2019-04-07T20:33:51.757Z,15.75
2019-04-07T20:36:25.005Z,17.42
2019-04-07T20:39:01.940Z,16.25
2019-04-07T20:41:34.531Z,15.80
2019-04-07T20:44:11.548Z,17.23
2019-04-07T20:47:00.449Z,16.62
2019-04-07T20:49:34.243Z,16.47
2019-04-07T20:52:08.258Z,17.27
2019-04-07T20:54:56.297Z,16.75
2019-04-07T20:57:46.289Z,15.38
2019-04-07T21:00:23.687Z,17.77
2019-04-07T21:05:44.308Z,18.20
2019-04-07T21:08:15.397Z,16.80
2019-04-07T21:13:19.309Z,14.93
2019-04-07T21:15:51.415Z,17.42
2019-04-07T21:21:17.098Z,16.73
2019-04-07T21:23:57.891Z,16.42
2019-04-07T21:26:30.912Z,17.42
2019-04-07T21:29:10.804Z,17.45
2019-04-07T21:31:44.102Z,17.23
2019-04-07T21:34:33.348Z,17.32
2019-04-07T21:37:04.736Z,17.67
2019-04-07T21:39:41.884Z,17.62
2019-04-07T21:42:16.253Z,19.25
2019-04-07T21:44:55.280Z,18.12
2019-04-07T21:47:29.274Z,18.07
2019-04-07T21:50:00.339Z,17.98
2019-04-07T21:52:46.101Z,17.95
2019-04-07T21:55:20.013Z,19.87
2019-04-07T21:57:57.004Z,19.40
2019-04-07T22:00:41.332Z,20.92
2019-04-07T22:03:16.459Z,19.45
2019-04-07T22:05:49.444Z,19.57
2019-04-07T22:08:21.218Z,20.35
2019-04-07T22:10:52.254Z,20.92
2019-04-07T22:13:21.741Z,19.30
2019-04-07T22:15:56.275Z,19.55
2019-04-07T22:18:23.662Z,20.77
2019-04-07T22:20:54.809Z,18.27
2019-04-07T22:23:24.908Z,20.52
2019-04-07T22:25:54.763Z,22.23
2019-04-07T22:28:27.747Z,22.10
2019-04-07T22:30:55.943Z,22.10
2019-04-07T22:33:26.866Z,18.33
2019-04-07T22:35:56.293Z,21.02
2019-04-07T22:38:27.356Z,23.10
2019-04-07T22:40:56.845Z,23.40
2019-04-07T22:43:26.217Z,23.12
2019-04-07T22:46:06.893Z,23.52
2019-04-07T22:50:56.806Z,25.77
2019-04-07T22:53:29.587Z,24.77
2019-04-07T22:55:57.138Z,24.57
2019-04-07T22:58:26.438Z,26.97
2019-04-07T23:00:55.766Z,25.43
2019-04-07T23:03:25.972Z,27.55
2019-04-07T23:05:55.547Z,27.07
2019-04-07T23:08:24.911Z,28.05
2019-04-07T23:10:54.334Z,28.40
2019-04-07T23:13:24.604Z,28.03
2019-04-07T23:16:06.397Z,29.15
2019-04-07T23:18:24.915Z,28.80
2019-04-07T23:20:54.289Z,27.20
2019-04-07T23:23:24.127Z,27.66
2019-04-07T23:25:54.150Z,27.87
2019-04-07T23:28:25.019Z,29.02
2019-04-07T23:30:54.969Z,28.67
2019-04-07T23:33:25.513Z,27.07
2019-04-07T23:35:55.431Z,25.03
2019-04-07T23:38:24.972Z,26.97
2019-04-07T23:40:55.622Z,26.33
2019-04-07T23:43:25.306Z,27.54
2019-04-07T23:45:55.938Z,27.73
2019-04-07T23:48:26.335Z,30.55
2019-04-07T23:50:56.145Z,29.80
2019-04-07T23:54:02.286Z,28.86
2019-04-07T23:56:31.752Z,32.00
2019-04-07T23:59:01.074Z,33.13
